Historyczne dane pomiarowe

Dodano dane terminowe – wersja testowa.

Dane z okresu 1951-2019

Wersja bazy: 1.34 [2019-03-16, lista zmian], aktualizacja planowana na 2019-04-15

Dane meteo z obszaru Polski uzyskane na podstawie danych udostępnionych przez Instytut Meteorologii i Gospodarki Wodnej – Państwowy Instytut Badawczy.

 

Wybierz Datę:    

       

TemperaturaWilgotnośćZachmurzenieWiatrCiśnienieWidzialnośćZjawiska
 Data    tng td wb rh cc ccl cl cm ch dir g1 g2 mslp ppp      
1999-07-21 00:00:00 11.1--- 4.3 7.763wxwxwx5wx--- 804.2 0.0---wx
1999-07-21 01:00:00 11.1--- 5.0 8.067wxwxwxwx5wx--- 804.0----wx
1999-07-21 02:00:00 10.9--- 7.4 9.078wxwxwxwx6wx--- 803.7----wx
1999-07-21 03:00:00 10.9--- 6.4 8.674wxwxwxwx7wx--- 803.9----wx
1999-07-21 04:00:00 10.3--- 7.1 8.680wxwxwxwxwx6wx--- 803.9----wx
1999-07-21 05:00:00 10.7--- 6.7 8.676wxwxwxwxwx4wx--- 803.8----wx
1999-07-21 06:00:00 11.5--- 7.6 9.477wxwxwxwx2wx--- 803.8 0.0---wx
1999-07-21 07:00:00 11.8--- 8.4 9.979wxwxwxwx3wx--- 804.0----wx
1999-07-21 08:00:00 12.1--- 8.0 9.976wxwxwxwxwx3wx--- 804.2----wx
1999-07-21 09:00:00 14.0--- 5.6 9.557wxwxwxwxwx4wx--- 804.5----wx
1999-07-21 10:00:00 15.0--- 7.1 10.759wxwxwxwxwx4wx--- 804.3----wx
1999-07-21 11:00:00 14.9--- 5.8 10.054wxwxwxwxwx6wx--- 804.1----wx
1999-07-21 12:00:00 16.4--- 8.4 11.859wxwxwxwxwx4wx--- 803.8 0.0---wx
1999-07-21 13:00:00 16.5--- 8.0 11.757wxwxwxwx4wx--- 803.6----wx
1999-07-21 14:00:00 16.6--- 5.1 10.547wxwxwxwxwx6wx--- 803.5----wx
1999-07-21 15:00:00 15.1--- 6.2 10.356wxwxwxwxwx5wx--- 803.3----wx
1999-07-21 16:00:00 14.4--- 7.7 10.765wxwxwxwxwx4wx--- 803.2----wx
1999-07-21 17:00:00 14.6--- 9.3 11.671wxwxwxwxwx2wx--- 803.2----wx
1999-07-21 18:00:00 12.7--- 7.8 10.072wxwxwxwxwx7wx--- 803.4 0.0---wx
1999-07-21 19:00:00 10.8--- 7.7 9.181wxwxwxwxwx7wx--- 803.6----wx
1999-07-21 20:00:00 11.3--- 7.8 9.479wxwxwxwxwx7wx--- 803.3----wx
1999-07-21 21:00:00 11.2--- 7.7 9.379wxwxwxwxwx7wx--- 803.0----wx
1999-07-21 22:00:00 10.7--- 8.6 9.687wxwxwxwxwx7wx--- 802.6----wx
1999-07-21 23:00:00 10.6--- 7.7 9.082wxwxwx6wx--- 802.4----wx

 

Źródłem pochodzenia danych jest Instytut Meteorologii i Gospodarki Wodnej – Państwowy Instytut Badawczy. Dane Instytutu Meteorologii i Gospodarki Wodnej – Państwowego Instytutu Badawczego zostały przetworzone.

Dane źródłowe można odnaleźć na stronie https://dane.imgw.pl